Time;durP1;ratioP1;P1;durP2;ratioP2;P2;SDS_P1;SDS_P2;PMS_P1;PMS_P2;Temp;Humidity;BMP_temperature;BMP_pressure;BME280_temperature;BME280_humidity;BME280_pressure;Samples;Min_cycle;Max_cycle;Signal;HPM_P1;HPM_P2
2021/11/21 00:02:18;;;;;;;14.20;5.22;;;;;;;3.92;98.94;98824.53;1630696;86;21024;-70
2021/11/21 00:04:44;;;;;;;12.35;4.60;;;;;;;3.94;99.06;98816.36;1694634;84;20948;-70
2021/11/21 00:07:11;;;;;;;12.35;4.70;;;;;;;3.96;99.11;98810.09;1692295;83;21144;-70
2021/11/21 00:09:38;;;;;;;17.17;5.17;;;;;;;3.97;99.09;98807.62;1690132;83;20980;-69
2021/11/21 00:12:06;;;;;;;15.45;4.03;;;;;;;3.96;99.34;98809.27;1679843;85;21482;-69
2021/11/21 00:14:32;;;;;;;17.70;5.00;;;;;;;3.96;99.28;98797.86;1679797;85;20904;-69
2021/11/21 00:17:01;;;;;;;14.55;4.75;;;;;;;3.95;99.33;98807.66;1679767;85;21433;-69
2021/11/21 00:19:28;;;;;;;20.85;5.42;;;;;;;3.94;99.33;98804.13;1679648;85;22962;-69
2021/11/21 00:21:55;;;;;;;13.20;4.47;;;;;;;3.95;99.40;98802.23;1681866;85;21028;-70
2021/11/21 00:24:22;;;;;;;16.55;5.30;;;;;;;3.94;99.35;98800.06;1659708;85;20936;-70
2021/11/21 00:26:48;;;;;;;12.18;5.22;;;;;;;3.92;99.42;98800.91;1658136;85;21071;-70
2021/11/21 00:29:15;;;;;;;17.95;4.80;;;;;;;3.92;99.58;98797.37;1694739;84;21011;-70
2021/11/21 00:31:42;;;;;;;15.43;4.55;;;;;;;3.90;99.48;98799.02;1692065;83;22197;-70
2021/11/21 00:34:10;;;;;;;13.80;4.78;;;;;;;3.89;99.31;98797.95;1692703;83;21403;-70
2021/11/21 00:36:37;;;;;;;13.48;4.47;;;;;;;3.87;99.36;98801.51;1686021;83;21007;-70
2021/11/21 00:39:04;;;;;;;18.15;4.70;;;;;;;3.87;99.52;98792.81;1699227;83;21033;-70
2021/11/21 00:41:30;;;;;;;21.95;6.35;;;;;;;3.86;99.90;98792.55;1710450;84;20966;-71
2021/11/21 00:43:57;;;;;;;11.75;4.67;;;;;;;3.88;100.00;98782.77;1710675;84;21550;-70
2021/11/21 00:46:23;;;;;;;20.32;6.50;;;;;;;3.89;99.97;98783.83;1710393;84;21002;-70
2021/11/21 00:48:50;;;;;;;16.05;4.72;;;;;;;3.91;99.91;98784.90;1696262;83;20916;-70
2021/11/21 00:51:18;;;;;;;12.43;4.95;;;;;;;3.91;100.00;98787.06;1693270;83;21007;-70
2021/11/21 00:53:51;;;;;;;15.43;5.20;;;;;;;3.92;100.00;98783.80;1690442;83;20908;-71
2021/11/21 00:56:13;;;;;;;15.00;4.75;;;;;;;3.94;100.00;98774.81;1689429;83;21053;-70
2021/11/21 00:58:40;;;;;;;12.00;4.92;;;;;;;3.96;100.00;98775.33;1706172;82;20955;-71
2021/11/21 01:01:08;;;;;;;15.95;4.83;;;;;;;4.01;100.00;98765.77;1720025;81;20964;-69
2021/11/21 01:03:35;;;;;;;10.03;4.40;;;;;;;4.08;100.00;98771.61;1718810;81;21072;-70
2021/11/21 01:06:01;;;;;;;13.83;5.05;;;;;;;4.13;100.00;98769.38;1723716;83;20931;-70
2021/11/21 01:08:28;;;;;;;16.32;5.42;;;;;;;4.21;100.00;98763.30;1717011;81;21097;-70
2021/11/21 01:11:00;;;;;;;17.77;5.70;;;;;;;4.25;100.00;98758.89;1725608;82;20923;-70
2021/11/21 01:13:27;;;;;;;16.07;5.15;;;;;;;4.25;100.00;98755.62;1733513;82;20952;-67
2021/11/21 01:15:53;;;;;;;14.30;5.05;;;;;;;4.34;100.00;98750.34;1694854;83;20979;-67
2021/11/21 01:18:20;;;;;;;13.58;5.53;;;;;;;4.34;100.00;98750.34;1665522;86;20948;-67
2021/11/21 01:20:47;;;;;;;13.88;5.50;;;;;;;4.37;100.00;98739.44;1713379;81;21234;-67
2021/11/21 01:23:17;;;;;;;15.60;5.78;;;;;;;4.40;100.00;98742.38;1710022;83;20964;-67
2021/11/21 01:25:45;;;;;;;11.83;5.20;;;;;;;4.42;100.00;98740.17;1710848;81;21017;-67
2021/11/21 01:28:12;;;;;;;16.30;6.55;;;;;;;4.44;100.00;98733.08;1719625;81;21007;-67
2021/11/21 01:30:39;;;;;;;11.60;5.10;;;;;;;4.43;100.00;98734.19;1723811;83;20943;-67
2021/11/21 01:33:06;;;;;;;19.12;6.00;;;;;;;4.46;100.00;98734.40;1723693;83;21764;-68
2021/11/21 01:35:33;;;;;;;12.07;5.30;;;;;;;4.47;100.00;98729.22;1724018;83;21494;-68
2021/11/21 01:38:00;;;;;;;15.13;6.70;;;;;;;4.52;100.00;98733.77;1723626;83;20951;-67
2021/11/21 01:40:26;;;;;;;18.45;5.80;;;;;;;4.55;100.00;98726.38;1724659;82;20944;-67
2021/11/21 01:42:53;;;;;;;15.15;5.60;;;;;;;4.59;100.00;98732.30;1723784;81;20960;-67
2021/11/21 01:45:20;;;;;;;18.32;6.20;;;;;;;4.61;100.00;98732.00;1723668;83;21179;-68
2021/11/21 01:47:47;;;;;;;15.50;6.08;;;;;;;4.64;100.00;98713.70;1723895;83;21609;-68
2021/11/21 01:50:21;;;;;;;11.25;5.70;;;;;;;4.64;100.00;98713.70;1709633;81;21107;-67
2021/11/21 01:52:48;;;;;;;13.38;6.28;;;;;;;4.72;100.00;98724.45;1718611;81;20916;-67
2021/11/21 01:55:15;;;;;;;14.23;6.45;;;;;;;4.76;100.00;98718.67;1710026;83;20956;-67
2021/11/21 01:57:42;;;;;;;11.53;4.97;;;;;;;4.82;100.00;98716.12;1716874;82;21617;-68
2021/11/21 02:00:11;;;;;;;13.28;5.35;;;;;;;4.86;100.00;98710.35;1719463;81;20948;-67
2021/11/21 02:02:42;;;;;;;13.38;6.30;;;;;;;4.88;100.00;98704.06;1723491;82;20876;-68
2021/11/21 02:05:09;;;;;;;19.25;6.55;;;;;;;4.90;100.00;98705.93;1728744;82;20947;-67
2021/11/21 02:07:35;;;;;;;17.85;6.65;;;;;;;4.91;100.00;98703.46;1724395;82;20967;-68
2021/11/21 02:10:06;;;;;;;11.08;5.05;;;;;;;4.94;100.00;98705.59;1724145;81;21236;-68
2021/11/21 02:12:32;;;;;;;16.02;6.33;;;;;;;5.01;100.00;98700.56;1727395;82;21400;-69
2021/11/21 02:14:59;;;;;;;14.23;6.58;;;;;;;5.01;100.00;98700.56;1730572;82;20916;-68
2021/11/21 02:17:28;;;;;;;14.45;5.78;;;;;;;5.08;100.00;98701.53;1724128;83;20952;-68
2021/11/21 02:19:57;;;;;;;13.35;6.10;;;;;;;5.12;100.00;98706.08;1724433;83;20986;-69
2021/11/21 02:22:42;;;;;;;10.58;6.35;;;;;;;5.20;100.00;98701.85;1714881;81;21152;-69
2021/11/21 02:25:10;;;;;;;15.20;6.58;;;;;;;5.28;100.00;98695.69;1708020;83;20912;-69
2021/11/21 02:27:37;;;;;;;16.35;6.83;;;;;;;5.34;100.00;98690.39;1695437;83;21064;-70
2021/11/21 02:30:06;;;;;;;11.88;6.17;;;;;;;5.39;100.00;98691.66;1656510;85;20939;-70
2021/11/21 02:32:33;;;;;;;14.25;6.55;;;;;;;5.45;100.00;98696.45;1658266;86;21542;-69
2021/11/21 02:35:00;;;;;;;14.30;6.83;;;;;;;5.48;100.00;98680.88;1721705;81;21157;-69
2021/11/21 02:37:26;;;;;;;13.75;6.70;;;;;;;5.52;100.00;98679.97;1717908;81;21001;-69
2021/11/21 02:39:53;;;;;;;12.20;6.97;;;;;;;5.55;100.00;98680.72;1724448;82;20912;-69
2021/11/21 02:42:29;;;;;;;9.00;6.37;;;;;;;5.57;100.00;98689.39;1672027;81;21006;-69
2021/11/21 02:44:55;;;;;;;15.68;7.47;;;;;;;5.59;100.00;98694.53;1723707;83;21589;-69
2021/11/21 02:47:22;;;;;;;13.03;6.53;;;;;;;5.63;100.00;98681.92;1714311;81;21094;-69
2021/11/21 02:49:50;;;;;;;15.10;7.70;;;;;;;5.67;100.00;98688.93;1704137;83;20908;-69
2021/11/21 02:52:17;;;;;;;15.15;7.75;;;;;;;5.71;100.00;98683.13;1680023;83;21562;-69
2021/11/21 02:54:55;;;;;;;10.82;6.97;;;;;;;5.73;100.00;98689.88;1679747;85;21099;-69
2021/11/21 02:57:22;;;;;;;12.60;7.33;;;;;;;5.75;100.00;98686.86;1695010;84;21455;-69
2021/11/21 02:59:49;;;;;;;12.10;7.90;;;;;;;5.76;100.00;98687.91;1684854;83;21965;-69
2021/11/21 03:02:18;;;;;;;16.77;8.63;;;;;;;5.77;100.00;98681.36;1723458;83;21031;-69
2021/11/21 03:04:46;;;;;;;12.23;8.25;;;;;;;5.80;100.00;98682.08;1721594;81;20908;-70
2021/11/21 03:07:14;;;;;;;18.05;8.58;;;;;;;5.81;100.00;98671.44;1723173;82;21554;-70
2021/11/21 03:09:40;;;;;;;14.33;8.33;;;;;;;5.83;100.00;98688.28;1717533;83;20896;-70
2021/11/21 03:12:08;;;;;;;15.72;8.18;;;;;;;5.83;100.00;98679.30;1670975;84;21090;-69
2021/11/21 03:14:35;;;;;;;14.50;8.28;;;;;;;5.84;100.00;98678.99;1710299;83;21075;-68
2021/11/21 03:17:04;;;;;;;14.00;8.68;;;;;;;5.84;100.00;98668.10;1710960;82;20908;-68
2021/11/21 03:19:30;;;;;;;15.90;8.30;;;;;;;5.85;100.00;98671.07;1698737;82;20991;-69
2021/11/21 03:21:57;;;;;;;13.48;8.65;;;;;;;5.86;100.00;98667.23;1713444;83;21002;-68
2021/11/21 03:24:23;;;;;;;15.90;9.03;;;;;;;5.87;100.00;98663.41;1691956;83;21211;-68
2021/11/21 03:26:50;;;;;;;12.63;8.88;;;;;;;5.90;100.00;98672.36;1692132;83;21031;-69
2021/11/21 03:29:16;;;;;;;12.80;8.33;;;;;;;5.92;100.00;98673.41;1690689;84;21509;-69
2021/11/21 03:32:04;;;;;;;15.43;8.95;;;;;;;5.93;100.00;98677.19;1687745;83;38031;-69
2021/11/21 03:34:41;;;;;;;16.17;8.68;;;;;;;5.92;100.00;98672.86;1680253;83;20909;-69
2021/11/21 03:37:08;;;;;;;12.40;8.08;;;;;;;5.89;100.00;98665.30;1693726;83;21518;-68
2021/11/21 03:39:35;;;;;;;15.18;8.95;;;;;;;5.89;100.00;98680.83;1699074;83;21601;-67
2021/11/21 03:42:20;;;;;;;15.00;9.10;;;;;;;5.88;100.00;98673.19;1708517;84;20974;-67
2021/11/21 03:44:50;;;;;;;13.20;9.40;;;;;;;5.87;100.00;98675.66;1688487;83;21007;-67
2021/11/21 03:47:17;;;;;;;12.90;9.63;;;;;;;5.89;100.00;98683.56;1694385;83;20936;-67
2021/11/21 03:49:44;;;;;;;16.20;10.20;;;;;;;5.91;100.00;98679.97;1692632;83;21097;-67
2021/11/21 03:52:11;;;;;;;13.68;8.70;;;;;;;5.96;100.00;98677.14;1695233;84;20900;-67
2021/11/21 03:54:37;;;;;;;12.07;8.68;;;;;;;6.00;100.00;98670.52;1695152;84;20999;-71
2021/11/21 03:57:05;;;;;;;12.43;8.83;;;;;;;6.04;100.00;98668.80;1700578;83;21018;-70
2021/11/21 03:59:33;;;;;;;15.55;9.70;;;;;;;6.03;100.00;98674.00;1695421;83;20900;-71
2021/11/21 04:02:00;;;;;;;17.98;10.85;;;;;;;6.05;100.00;98675.86;1706690;83;21120;-71
2021/11/21 04:04:27;;;;;;;17.12;11.40;;;;;;;6.05;100.00;98678.02;1693835;83;21502;-70
2021/11/21 04:06:53;;;;;;;21.52;10.15;;;;;;;6.05;100.00;98673.94;1700144;83;21090;-69
2021/11/21 04:09:40;;;;;;;18.60;10.40;;;;;;;6.05;100.00;98674.49;1692332;83;20892;-69
2021/11/21 04:12:08;;;;;;;18.42;9.63;;;;;;;6.02;100.00;98673.19;1692284;83;21526;-69
2021/11/21 04:14:35;;;;;;;14.03;9.55;;;;;;;5.99;100.00;98675.16;1704037;83;21053;-70
2021/11/21 04:17:02;;;;;;;15.40;9.03;;;;;;;5.95;100.00;98671.44;1701596;83;21039;-69
2021/11/21 04:19:30;;;;;;;13.18;9.80;;;;;;;5.93;100.00;98671.75;1694576;84;20915;-69
2021/11/21 04:21:57;;;;;;;18.30;11.03;;;;;;;5.90;100.00;98671.55;1694655;84;21018;-69
2021/11/21 04:24:26;;;;;;;16.97;11.15;;;;;;;5.87;100.00;98664.77;1717161;83;20991;-69
2021/11/21 04:26:52;;;;;;;14.80;10.40;;;;;;;5.84;100.00;98660.48;1725535;82;21144;-69
2021/11/21 04:29:19;;;;;;;15.38;10.53;;;;;;;5.83;100.00;98658.87;1723530;83;20903;-69
2021/11/21 04:31:48;;;;;;;14.83;10.80;;;;;;;5.81;100.00;98657.81;1723021;82;20916;-69
2021/11/21 04:34:15;;;;;;;17.37;12.13;;;;;;;5.80;100.00;98653.48;1716885;82;20976;-68
2021/11/21 04:36:44;;;;;;;17.15;12.07;;;;;;;5.81;100.00;98659.18;1708520;84;20893;-68
2021/11/21 04:39:10;;;;;;;19.40;11.25;;;;;;;5.86;100.00;98652.81;1706589;83;21123;-68
2021/11/21 04:41:37;;;;;;;17.45;11.22;;;;;;;5.87;100.00;98651.14;1721427;81;21003;-69
2021/11/21 04:44:04;;;;;;;18.40;11.10;;;;;;;5.88;100.00;98652.75;1726258;82;20979;-68
2021/11/21 04:46:31;;;;;;;17.10;11.40;;;;;;;5.91;100.00;98641.84;1721186;81;20955;-68
2021/11/21 04:48:57;;;;;;;20.48;11.00;;;;;;;5.91;100.00;98648.09;1714720;83;21054;-68
2021/11/21 04:51:24;;;;;;;17.02;10.50;;;;;;;5.91;100.00;98652.17;1701280;83;21152;-69
2021/11/21 04:53:50;;;;;;;18.80;11.48;;;;;;;5.90;100.00;98658.73;1718548;81;20923;-69
2021/11/21 04:56:17;;;;;;;18.52;10.90;;;;;;;5.89;100.00;98650.31;1719426;83;20995;-68
2021/11/21 04:58:43;;;;;;;17.90;10.78;;;;;;;5.87;100.00;98662.59;1721515;81;21066;-69
2021/11/21 05:01:10;;;;;;;17.30;11.25;;;;;;;5.86;100.00;98648.73;1722353;81;21008;-71
2021/11/21 05:03:37;;;;;;;17.12;10.88;;;;;;;5.84;100.00;98661.84;1708930;83;21089;-68
2021/11/21 05:06:04;;;;;;;17.02;11.55;;;;;;;5.83;100.00;98655.59;1719131;82;20952;-68
2021/11/21 05:08:33;;;;;;;16.20;10.72;;;;;;;5.82;100.00;98651.26;1714305;83;20937;-71
2021/11/21 05:11:00;;;;;;;16.73;11.48;;;;;;;5.79;100.00;98655.95;1719917;82;21423;-69
2021/11/21 05:13:28;;;;;;;19.02;11.83;;;;;;;5.78;100.00;98661.15;1727984;82;20996;-70
2021/11/21 05:15:55;;;;;;;17.75;11.25;;;;;;;5.76;100.00;98663.95;1683856;83;21148;-69
2021/11/21 05:18:21;;;;;;;17.20;10.68;;;;;;;5.75;100.00;98665.88;1692305;83;20927;-69
2021/11/21 05:20:48;;;;;;;19.17;11.50;;;;;;;5.75;100.00;98654.98;1708651;84;20910;-69
2021/11/21 05:23:17;;;;;;;17.00;10.70;;;;;;;5.77;100.00;98660.93;1705691;83;20924;-70
2021/11/21 05:25:44;;;;;;;17.60;11.88;;;;;;;5.78;100.00;98657.06;1691093;83;21043;-70
2021/11/21 05:28:11;;;;;;;17.98;12.03;;;;;;;5.81;100.00;98657.81;1693530;84;21147;-70
2021/11/21 05:30:38;;;;;;;20.92;12.43;;;;;;;5.80;100.00;98657.56;1704806;83;21069;-70
2021/11/21 05:33:04;;;;;;;18.77;10.88;;;;;;;5.79;100.00;98657.31;1710138;83;20961;-69
2021/11/21 05:35:31;;;;;;;21.40;11.40;;;;;;;5.82;100.00;98643.09;1709998;84;20943;-69
2021/11/21 05:37:58;;;;;;;20.48;12.55;;;;;;;5.82;100.00;98646.37;1710057;84;21005;-69
2021/11/21 05:40:24;;;;;;;21.77;12.98;;;;;;;5.84;100.00;98648.23;1698162;83;21557;-69
2021/11/21 05:42:52;;;;;;;19.55;12.35;;;;;;;5.87;100.00;98644.89;1691919;83;20948;-70
2021/11/21 05:45:18;;;;;;;20.75;12.60;;;;;;;5.89;100.00;98646.23;1679675;83;21066;-70
2021/11/21 05:47:45;;;;;;;17.67;11.73;;;;;;;5.93;100.00;98640.97;1679547;85;21019;-69
2021/11/21 05:50:14;;;;;;;17.27;11.43;;;;;;;6.01;100.00;98650.34;1679456;85;20953;-69
2021/11/21 05:52:43;;;;;;;17.87;11.55;;;;;;;6.06;100.00;98648.30;1686366;83;21533;-70
2021/11/21 05:55:10;;;;;;;19.20;11.95;;;;;;;6.12;100.00;98647.07;1679657;84;20948;-69
2021/11/21 05:57:55;;;;;;;20.68;12.55;;;;;;;6.19;100.00;98643.92;1687980;83;20925;-70
2021/11/21 06:00:25;;;;;;;16.77;11.45;;;;;;;6.21;100.00;98644.42;1694252;83;21447;-68
2021/11/21 06:02:52;;;;;;;17.60;11.90;;;;;;;6.26;100.00;98646.47;1700866;84;20912;-68
2021/11/21 06:05:19;;;;;;;20.45;12.80;;;;;;;6.32;100.00;98644.42;1684662;83;21765;-69
2021/11/21 06:07:45;;;;;;;17.80;11.80;;;;;;;6.37;100.00;98637.45;1682445;84;20907;-69
2021/11/21 06:10:12;;;;;;;21.10;13.05;;;;;;;6.41;100.00;98641.17;1687408;83;20924;-68
2021/11/21 06:12:39;;;;;;;18.25;12.28;;;;;;;6.43;100.00;98633.49;1687771;83;21083;-68
2021/11/21 06:15:08;;;;;;;19.42;11.75;;;;;;;6.47;100.00;98634.48;1694414;84;21102;-68
2021/11/21 06:17:36;;;;;;;16.00;10.82;;;;;;;6.51;100.00;98637.39;1701955;83;21092;-69
2021/11/21 06:20:05;;;;;;;17.57;11.60;;;;;;;6.56;100.00;98631.25;1692606;83;21458;-69
2021/11/21 06:22:32;;;;;;;16.35;10.90;;;;;;;6.61;100.00;98631.13;1700490;83;21012;-69
2021/11/21 06:24:59;;;;;;;18.95;12.50;;;;;;;6.63;100.00;98624.00;1694026;84;21076;-69
2021/11/21 06:27:31;;;;;;;16.65;11.55;;;;;;;6.67;100.00;98626.34;1694037;83;20955;-69
2021/11/21 06:29:58;;;;;;;18.17;11.70;;;;;;;6.72;100.00;98628.14;1692891;83;25045;-69
2021/11/21 06:32:24;;;;;;;22.10;12.60;;;;;;;6.76;100.00;98630.48;1691047;83;20956;-71
2021/11/21 06:34:51;;;;;;;18.80;12.93;;;;;;;6.81;100.00;98635.25;1708493;84;20955;-70
2021/11/21 06:37:18;;;;;;;20.08;13.13;;;;;;;6.85;100.00;98634.07;1694853;84;20963;-69
2021/11/21 06:39:44;;;;;;;15.30;11.20;;;;;;;6.89;100.00;98633.69;1694746;84;20947;-70
2021/11/21 06:42:12;;;;;;;20.15;12.43;;;;;;;6.95;100.00;98632.41;1692603;83;20985;-70
2021/11/21 06:44:40;;;;;;;16.67;10.95;;;;;;;7.00;100.00;98636.92;1695945;84;20911;-69
2021/11/21 06:47:07;;;;;;;18.15;12.18;;;;;;;7.04;100.00;98638.71;1709917;83;20875;-70
2021/11/21 06:49:34;;;;;;;23.77;12.80;;;;;;;7.08;100.00;98654.70;1690220;83;21554;-71
2021/11/21 06:52:01;;;;;;;20.65;12.98;;;;;;;7.12;100.00;98646.69;1692966;84;20976;-70
2021/11/21 06:54:29;;;;;;;17.17;11.48;;;;;;;7.16;100.00;98644.38;1696050;83;21154;-70
2021/11/21 06:56:55;;;;;;;18.10;11.45;;;;;;;7.20;100.00;98632.27;1697340;83;21034;-70
2021/11/21 06:59:21;;;;;;;18.15;11.80;;;;;;;7.23;100.00;98635.19;1693042;83;20906;-70
2021/11/21 07:01:48;;;;;;;20.75;13.08;;;;;;;7.28;100.00;98640.50;1703774;83;21556;-70
2021/11/21 07:04:14;;;;;;;20.17;11.68;;;;;;;7.32;100.00;98635.77;1695306;83;21031;-70
2021/11/21 07:06:43;;;;;;;17.67;11.68;;;;;;;7.35;100.00;98634.58;1706978;83;21703;-70
2021/11/21 07:09:14;;;;;;;17.98;11.25;;;;;;;7.39;100.00;98642.38;1691629;83;20904;-70
2021/11/21 07:11:41;;;;;;;18.57;11.70;;;;;;;7.44;100.00;98646.34;1693019;84;20880;-70
2021/11/21 07:14:11;;;;;;;17.57;11.55;;;;;;;7.48;100.00;98648.68;1700975;83;20935;-70
2021/11/21 07:16:38;;;;;;;17.37;11.53;;;;;;;7.51;100.00;98641.19;1698928;83;20959;-71
2021/11/21 07:19:05;;;;;;;17.98;11.05;;;;;;;7.57;100.00;98633.65;1694632;84;21118;-71
2021/11/21 07:21:32;;;;;;;18.67;11.73;;;;;;;7.62;100.00;98641.70;1694570;84;20920;-69
2021/11/21 07:23:59;;;;;;;18.00;10.55;;;;;;;7.65;100.00;98645.72;1694591;83;20877;-69
2021/11/21 07:26:25;;;;;;;18.50;11.48;;;;;;;7.67;100.00;98645.64;1691062;83;20972;-66
2021/11/21 07:28:53;;;;;;;16.45;11.48;;;;;;;7.71;100.00;98650.72;1697199;83;21466;-69
2021/11/21 07:31:20;;;;;;;18.20;11.50;;;;;;;7.76;100.00;98647.03;1689538;83;21203;-69
2021/11/21 07:33:46;;;;;;;16.95;11.20;;;;;;;7.80;100.00;98645.27;1694886;83;20957;-69
2021/11/21 07:36:13;;;;;;;19.25;10.75;;;;;;;7.82;100.00;98645.76;1702533;83;20863;-69
2021/11/21 07:38:40;;;;;;;17.48;9.80;;;;;;;7.84;100.00;98644.31;1695683;83;20959;-69
2021/11/21 07:41:07;;;;;;;16.37;10.00;;;;;;;7.86;100.00;98648.90;1677871;85;20976;-69
2021/11/21 07:43:34;;;;;;;14.10;9.30;;;;;;;7.90;100.00;98647.14;1696806;83;21900;-69
2021/11/21 07:46:00;;;;;;;14.47;9.98;;;;;;;7.92;100.00;98641.35;1703385;83;21522;-69
2021/11/21 07:48:30;;;;;;;17.35;9.68;;;;;;;7.94;100.00;98646.73;1689690;83;21003;-69
2021/11/21 07:51:00;;;;;;;16.25;10.03;;;;;;;7.95;100.00;98632.52;1688994;83;21515;-69
2021/11/21 07:53:30;;;;;;;16.85;9.90;;;;;;;7.97;100.00;98644.49;1691015;84;20868;-68
2021/11/21 07:55:58;;;;;;;11.53;8.25;;;;;;;7.97;100.00;98641.20;1686620;83;21097;-68
2021/11/21 07:58:24;;;;;;;16.52;9.88;;;;;;;7.99;100.00;98643.05;1698324;83;20919;-68
2021/11/21 08:00:52;;;;;;;14.35;9.40;;;;;;;8.02;100.00;98634.77;1694693;83;21459;-68
2021/11/21 08:03:38;;;;;;;14.73;9.35;;;;;;;8.03;100.00;98635.02;1693177;83;20915;-68
2021/11/21 08:06:05;;;;;;;13.95;8.85;;;;;;;8.03;99.96;98637.74;1690322;83;20986;-70
2021/11/21 08:08:32;;;;;;;15.03;9.03;;;;;;;8.06;99.83;98634.37;1707530;83;21096;-69
2021/11/21 08:10:59;;;;;;;12.15;8.28;;;;;;;8.06;99.61;98638.47;1699669;82;20943;-74
2021/11/21 08:13:27;;;;;;;14.30;9.05;;;;;;;8.08;99.32;98637.59;1686542;84;20888;-74
2021/11/21 08:15:56;;;;;;;13.58;9.55;;;;;;;8.08;98.67;98648.52;1720739;83;20947;-70
2021/11/21 08:18:23;;;;;;;13.75;8.78;;;;;;;8.07;98.60;98640.08;1723662;83;21455;-70
2021/11/21 08:20:50;;;;;;;13.30;9.00;;;;;;;8.07;98.42;98649.08;1722187;82;21131;-70
2021/11/21 08:23:16;;;;;;;15.72;9.20;;;;;;;8.07;98.28;98642.81;1665381;83;21522;-70
2021/11/21 08:25:44;;;;;;;14.30;8.35;;;;;;;8.09;98.26;98650.91;1682102;84;21082;-71
2021/11/21 08:28:11;;;;;;;12.60;8.03;;;;;;;8.09;98.31;98645.44;1684140;83;21459;-69
2021/11/21 08:30:38;;;;;;;13.60;8.43;;;;;;;8.10;98.28;98640.77;1693237;84;20950;-70
2021/11/21 08:33:10;;;;;;;13.80;8.85;;;;;;;8.10;97.92;98646.24;1699065;83;21146;-70
2021/11/21 08:35:37;;;;;;;13.75;8.03;;;;;;;8.11;97.65;98641.81;1691648;83;21415;-70
2021/11/21 08:38:04;;;;;;;14.15;8.08;;;;;;;8.13;97.99;98645.03;1703784;83;21435;-68
2021/11/21 08:40:31;;;;;;;11.63;7.37;;;;;;;8.14;97.52;98643.91;1705591;83;20916;-74
2021/11/21 08:42:59;;;;;;;16.70;8.70;;;;;;;8.16;97.00;98649.86;1694563;84;20970;-75
2021/11/21 08:45:27;;;;;;;13.95;8.60;;;;;;;8.18;96.87;98642.70;1689361;83;21940;-70
2021/11/21 08:47:54;;;;;;;13.13;8.20;;;;;;;8.19;96.53;98633.38;1692725;84;20951;-70
2021/11/21 08:50:21;;;;;;;12.00;7.40;;;;;;;8.19;96.27;98631.45;1695631;83;20913;-68
2021/11/21 08:52:48;;;;;;;11.93;7.28;;;;;;;8.22;96.26;98632.73;1694676;82;21607;-70
2021/11/21 08:55:15;;;;;;;12.37;8.08;;;;;;;8.24;95.79;98627.19;1701152;83;21041;-70
2021/11/21 08:57:45;;;;;;;10.30;7.60;;;;;;;8.24;95.34;98629.92;1694817;83;21840;-69
2021/11/21 09:00:13;;;;;;;12.78;8.53;;;;;;;8.24;95.74;98620.91;1695577;83;21447;-70
2021/11/21 09:02:40;;;;;;;13.83;8.65;;;;;;;8.26;95.70;98628.23;1690616;84;20960;-70
2021/11/21 09:05:07;;;;;;;11.78;7.50;;;;;;;8.28;95.07;98628.71;1695606;83;20959;-70
2021/11/21 09:07:37;;;;;;;13.65;7.70;;;;;;;8.32;94.87;98622.84;1693069;84;20876;-70
2021/11/21 09:10:06;;;;;;;12.95;8.00;;;;;;;8.34;94.83;98616.52;1697246;83;21127;-70
2021/11/21 09:12:32;;;;;;;14.87;8.43;;;;;;;8.37;94.83;98611.77;1693184;83;20889;-71
2021/11/21 09:14:59;;;;;;;13.98;7.70;;;;;;;8.40;94.26;98616.59;1692103;83;21459;-70
2021/11/21 09:17:25;;;;;;;12.95;7.62;;;;;;;8.44;93.95;98607.98;1692418;83;21003;-70
2021/11/21 09:19:52;;;;;;;17.32;8.75;;;;;;;8.50;93.74;98611.34;1694199;84;21031;-71
2021/11/21 09:22:19;;;;;;;14.87;7.25;;;;;;;8.53;92.96;98610.70;1689241;83;21136;-70
2021/11/21 09:24:47;;;;;;;11.45;7.85;;;;;;;8.56;93.36;98607.31;1697737;83;20977;-73
2021/11/21 09:27:14;;;;;;;11.15;7.47;;;;;;;8.59;92.37;98608.84;1706419;83;20906;-73
2021/11/21 09:29:43;;;;;;;12.15;8.13;;;;;;;8.62;92.19;98605.22;1705662;82;21118;-74
2021/11/21 09:32:11;;;;;;;11.30;7.37;;;;;;;8.64;91.96;98601.59;1723766;83;20935;-73
2021/11/21 09:34:39;;;;;;;14.35;9.03;;;;;;;8.66;91.92;98602.06;1701579;83;21137;-74
2021/11/21 09:37:06;;;;;;;12.23;7.80;;;;;;;8.69;91.82;98602.75;1694750;84;20995;-72
2021/11/21 09:39:33;;;;;;;13.80;8.43;;;;;;;8.69;91.62;98600.82;1692976;83;20932;-73
2021/11/21 09:42:00;;;;;;;12.60;8.40;;;;;;;8.71;91.46;98604.59;1691458;83;21543;-73
2021/11/21 09:44:27;;;;;;;14.53;8.53;;;;;;;8.71;91.22;98596.39;1693749;84;20991;-76
2021/11/21 09:46:54;;;;;;;13.72;8.53;;;;;;;8.71;91.04;98596.39;1701428;82;22102;-71
2021/11/21 09:49:22;;;;;;;14.33;8.83;;;;;;;8.73;91.28;98594.94;1710453;82;20934;-72
2021/11/21 09:51:48;;;;;;;11.55;8.20;;;;;;;8.73;90.88;98594.13;1690285;83;20994;-72
2021/11/21 09:54:15;;;;;;;13.35;8.58;;;;;;;8.74;90.79;98593.80;1690585;83;21538;-72
2021/11/21 09:56:43;;;;;;;12.60;8.00;;;;;;;8.77;90.36;98595.09;1703790;83;20950;-72
2021/11/21 09:59:10;;;;;;;12.23;7.72;;;;;;;8.79;89.90;98592.83;1692900;83;21130;-71
2021/11/21 10:01:41;;;;;;;11.22;8.35;;;;;;;8.81;89.71;98582.36;1695519;83;21049;-72
2021/11/21 10:04:11;;;;;;;13.45;8.28;;;;;;;8.82;89.09;98583.97;1687364;83;21000;-71
2021/11/21 10:06:45;;;;;;;15.32;8.83;;;;;;;8.84;88.65;98588.55;1693651;84;21530;-71
2021/11/21 10:09:18;;;;;;;12.73;7.28;;;;;;;8.86;88.03;98575.34;1694772;84;20911;-72
2021/11/21 10:12:03;;;;;;;11.68;8.38;;;;;;;8.86;87.56;98580.81;1692146;83;21158;-73
2021/11/21 10:14:32;;;;;;;10.40;7.58;;;;;;;8.85;87.44;98584.68;1694717;84;20912;-73
2021/11/21 10:16:59;;;;;;;13.45;8.50;;;;;;;8.85;87.61;98575.09;1694636;83;21478;-73
2021/11/21 10:19:25;;;;;;;11.20;7.53;;;;;;;8.85;86.93;98570.43;1700365;83;21488;-73
2021/11/21 10:21:55;;;;;;;13.65;8.60;;;;;;;8.86;86.76;98572.03;1680648;83;21023;-73
2021/11/21 10:24:28;;;;;;;13.43;8.50;;;;;;;8.84;85.87;98569.39;1691182;83;21129;-72
2021/11/21 10:27:12;;;;;;;14.60;9.05;;;;;;;8.83;85.99;98573.25;1694550;83;21051;-73
2021/11/21 10:29:48;;;;;;;12.60;8.58;;;;;;;8.81;85.93;98568.67;1700324;84;20995;-73
2021/11/21 10:32:20;;;;;;;15.70;9.58;;;;;;;8.79;85.24;98569.56;1687910;83;21107;-72
2021/11/21 10:34:55;;;;;;;11.43;8.25;;;;;;;8.78;85.05;98566.03;1691511;83;21027;-72
2021/11/21 10:37:34;;;;;;;10.20;7.75;;;;;;;8.77;85.06;98562.25;1694869;83;21200;-73
2021/11/21 10:40:10;;;;;;;12.68;9.30;;;;;;;8.76;84.94;98562.02;1687816;83;21618;-72
2021/11/21 10:42:39;;;;;;;11.50;8.53;;;;;;;8.75;84.75;98572.72;1689135;84;20951;-72
2021/11/21 10:45:11;;;;;;;13.45;8.85;;;;;;;8.74;84.23;98554.70;1692039;83;20991;-73
2021/11/21 10:47:49;;;;;;;14.13;8.48;;;;;;;8.74;84.25;98556.86;1697377;83;20935;-72
2021/11/21 10:50:32;;;;;;;12.43;7.97;;;;;;;8.74;84.08;98565.64;1694733;84;21195;-72
2021/11/21 10:53:07;;;;;;;13.53;8.10;;;;;;;8.74;84.08;98547.29;1693446;83;20999;-72
2021/11/21 10:55:36;;;;;;;10.95;7.10;;;;;;;8.77;83.46;98560.87;1694656;84;20948;-72
2021/11/21 10:58:14;;;;;;;11.73;7.40;;;;;;;8.80;83.08;98554.19;1694884;84;20955;-73
2021/11/21 11:00:41;;;;;;;10.58;7.03;;;;;;;8.82;81.04;98552.49;1692664;83;21519;-73
2021/11/21 11:03:19;;;;;;;13.65;7.80;;;;;;;8.84;81.01;98555.14;1694900;84;22101;-73
2021/11/21 11:05:46;;;;;;;10.93;7.42;;;;;;;8.86;79.64;98542.50;1689331;83;21577;-72
2021/11/21 11:08:30;;;;;;;11.70;7.20;;;;;;;8.88;79.95;98548.44;1673836;83;21047;-72
2021/11/21 11:10:59;;;;;;;15.15;9.20;;;;;;;8.89;79.71;98544.02;1671394;84;20955;-72
2021/11/21 11:13:26;;;;;;;13.13;8.78;;;;;;;8.91;80.94;98545.05;1697956;83;20995;-70
2021/11/21 11:15:56;;;;;;;12.28;7.83;;;;;;;8.93;80.00;98542.78;1711294;81;21149;-75
2021/11/21 11:18:26;;;;;;;13.88;7.67;;;;;;;8.93;80.31;98552.37;1717170;82;20867;-72
2021/11/21 11:20:56;;;;;;;12.65;8.23;;;;;;;8.91;80.36;98546.42;1665697;83;21487;-73
2021/11/21 11:23:21;;;;;;;17.02;8.85;;;;;;;8.88;80.67;98545.70;1700255;83;20971;-73
2021/11/21 11:25:49;;;;;;;12.63;8.48;;;;;;;8.85;80.95;98546.36;1700175;81;20960;-70
2021/11/21 11:28:30;;;;;;;11.35;7.28;;;;;;;8.84;81.13;98537.91;1689392;83;21824;-69
2021/11/21 11:30:58;;;;;;;14.10;8.13;;;;;;;8.83;81.31;98552.73;1715439;83;20951;-68
2021/11/21 11:33:37;;;;;;;11.08;7.80;;;;;;;8.83;81.54;98545.89;1702952;83;20947;-73